createdAt,value
2018-08-18T00:02:12.109Z,19.20
2018-08-18T00:07:06.448Z,19.20
2018-08-18T00:09:33.629Z,19.20
2018-08-18T00:12:00.817Z,19.30
2018-08-18T00:14:27.940Z,19.50
2018-08-18T00:19:23.857Z,19.60
2018-08-18T00:24:18.195Z,19.70
2018-08-18T00:29:12.512Z,19.60
2018-08-18T00:34:08.166Z,19.60
2018-08-18T00:41:30.658Z,19.70
2018-08-18T00:43:58.724Z,19.70
2018-08-18T00:46:27.912Z,19.70
2018-08-18T00:51:26.716Z,19.70
2018-08-18T00:53:53.812Z,19.70
2018-08-18T00:58:50.247Z,19.50
2018-08-18T01:03:50.476Z,19.40
2018-08-18T01:06:18.784Z,19.40
2018-08-18T01:08:46.504Z,19.30
2018-08-18T01:11:14.616Z,19.30
2018-08-18T01:18:36.104Z,19.40
2018-08-18T01:25:57.617Z,19.50
2018-08-18T01:31:05.095Z,19.50
2018-08-18T01:33:33.617Z,19.50
2018-08-18T01:45:54.500Z,19.30
2018-08-18T01:53:15.971Z,19.20
2018-08-18T01:58:10.250Z,19.10
2018-08-18T02:05:31.776Z,19.00
2018-08-18T02:10:26.152Z,18.90
2018-08-18T02:15:26.147Z,18.90
2018-08-18T02:20:20.476Z,18.90
2018-08-18T02:22:47.664Z,18.90
2018-08-18T02:37:34.258Z,18.90
2018-08-18T02:42:28.605Z,18.80
2018-08-18T02:49:51.228Z,18.70
2018-08-18T02:54:52.121Z,18.70
2018-08-18T02:59:46.413Z,18.70
2018-08-18T03:04:46.680Z,18.80
2018-08-18T03:07:13.836Z,18.80
2018-08-18T03:12:08.460Z,18.80
2018-08-18T03:14:35.758Z,18.70
2018-08-18T03:19:30.082Z,18.70
2018-08-18T03:24:24.638Z,18.60
2018-08-18T03:26:53.612Z,18.60
2018-08-18T03:29:21.995Z,18.60
2018-08-18T03:34:17.008Z,18.60
2018-08-18T03:36:45.843Z,18.60
2018-08-18T03:41:46.509Z,18.70
2018-08-18T03:44:13.627Z,18.80
2018-08-18T03:49:07.922Z,18.70
2018-08-18T03:54:08.083Z,18.70
2018-08-18T03:59:02.559Z,18.60
2018-08-18T04:01:38.372Z,18.60
2018-08-18T04:13:56.018Z,18.50
2018-08-18T04:18:55.009Z,18.40
2018-08-18T04:21:22.470Z,18.40
2018-08-18T04:23:49.628Z,18.40
2018-08-18T04:28:43.925Z,18.50
2018-08-18T04:33:38.249Z,18.40
2018-08-18T04:38:32.572Z,18.40
2018-08-18T04:40:59.695Z,18.30
2018-08-18T04:45:54.015Z,18.30
2018-08-18T04:50:53.984Z,18.30
2018-08-18T04:55:48.264Z,18.40
2018-08-18T05:03:09.792Z,18.50
2018-08-18T05:08:04.113Z,18.70
2018-08-18T05:15:25.684Z,18.90
2018-08-18T05:17:52.832Z,18.90
2018-08-18T05:20:22.652Z,19.00
2018-08-18T05:22:49.804Z,19.00
2018-08-18T05:40:02.032Z,19.40
2018-08-18T05:44:56.316Z,19.60
2018-08-18T05:52:18.713Z,19.80
2018-08-18T05:54:45.848Z,19.80
2018-08-18T06:11:58.017Z,20.20
2018-08-18T06:16:52.348Z,20.30
2018-08-18T06:21:46.984Z,20.30
2018-08-18T06:24:14.185Z,20.40
2018-08-18T06:29:08.557Z,20.60
2018-08-18T06:31:52.100Z,20.90
2018-08-18T06:36:46.496Z,21.40
2018-08-18T06:39:13.646Z,21.80
2018-08-18T06:44:08.241Z,22.20
2018-08-18T06:49:02.590Z,22.40
2018-08-18T06:51:29.740Z,22.60
2018-08-18T06:56:24.067Z,22.80
2018-08-18T07:01:18.388Z,22.90
2018-08-18T07:06:14.980Z,22.80
2018-08-18T07:08:47.988Z,22.70
2018-08-18T07:16:10.159Z,22.40
2018-08-18T07:23:31.669Z,22.20
2018-08-18T07:28:27.851Z,22.30
2018-08-18T07:33:22.397Z,22.50
2018-08-18T07:38:16.784Z,22.70
2018-08-18T07:57:59.076Z,23.90
2018-08-18T08:00:28.484Z,23.80
2018-08-18T08:02:55.718Z,23.80
2018-08-18T08:07:50.176Z,23.90
2018-08-18T08:17:39.692Z,24.10
2018-08-18T08:22:34.516Z,24.40
2018-08-18T08:29:56.123Z,24.50
2018-08-18T08:34:50.700Z,24.70
2018-08-18T08:37:17.891Z,24.70
2018-08-18T08:44:41.172Z,24.80
2018-08-18T08:47:09.861Z,25.00
2018-08-18T08:52:04.942Z,25.70
2018-08-18T08:54:33.469Z,26.00
2018-08-18T09:01:56.265Z,26.70
2018-08-18T09:06:55.452Z,26.90
2018-08-18T09:09:23.053Z,26.80
2018-08-18T09:11:50.317Z,26.80
2018-08-18T09:16:44.752Z,26.50
2018-08-18T09:19:11.921Z,26.70
2018-08-18T09:24:11.909Z,27.50
2018-08-18T09:29:13.000Z,27.50
2018-08-18T09:31:40.793Z,27.70
2018-08-18T09:34:07.997Z,28.00
2018-08-18T09:39:02.432Z,28.20
2018-08-18T09:41:29.556Z,28.30
2018-08-18T09:43:56.712Z,28.50
2018-08-18T09:46:23.904Z,28.80
2018-08-18T09:51:18.225Z,29.30
2018-08-18T09:56:12.631Z,29.70
2018-08-18T10:01:07.024Z,30.50
2018-08-18T10:03:34.203Z,31.10
2018-08-18T10:08:28.541Z,30.90
2018-08-18T10:10:55.703Z,31.00
2018-08-18T10:15:50.023Z,31.90
2018-08-18T10:20:49.617Z,33.00
2018-08-18T10:25:44.257Z,33.80
2018-08-18T10:30:38.813Z,33.40
2018-08-18T10:33:05.964Z,33.90
2018-08-18T10:40:29.876Z,34.90
2018-08-18T10:42:57.119Z,35.30
2018-08-18T10:45:24.265Z,35.40
2018-08-18T10:47:51.447Z,35.50
2018-08-18T10:53:49.683Z,35.60
2018-08-18T10:59:00.202Z,35.40
2018-08-18T11:01:27.333Z,35.70
2018-08-18T11:03:54.582Z,36.10
2018-08-18T11:06:26.508Z,36.50
2018-08-18T11:08:53.644Z,37.10
2018-08-18T11:13:48.010Z,38.30
2018-08-18T11:16:15.472Z,38.10
2018-08-18T11:18:42.620Z,37.80
2018-08-18T11:21:09.781Z,37.70
2018-08-18T11:26:04.163Z,37.80
2018-08-18T11:36:10.600Z,38.80
2018-08-18T11:38:37.867Z,38.90
2018-08-18T11:43:46.416Z,38.90
2018-08-18T11:46:13.580Z,39.40
2018-08-18T11:51:07.920Z,40.30
2018-08-18T11:53:40.276Z,40.40
2018-08-18T11:56:07.634Z,41.00
2018-08-18T12:01:01.970Z,40.80
2018-08-18T12:03:32.629Z,40.70
2018-08-18T12:06:01.903Z,41.30
2018-08-18T12:08:30.272Z,41.80
2018-08-18T12:16:04.818Z,41.90
2018-08-18T12:18:32.616Z,42.20
2018-08-18T12:23:29.163Z,41.20
2018-08-18T12:28:34.994Z,42.10
2018-08-18T12:33:31.469Z,42.10
2018-08-18T12:35:58.636Z,40.80
2018-08-18T12:48:22.002Z,37.00
2018-08-18T12:50:49.146Z,38.30
2018-08-18T12:53:16.301Z,39.20
2018-08-18T12:58:15.737Z,40.30
2018-08-18T13:05:37.196Z,40.70
2018-08-18T13:08:04.505Z,41.40
2018-08-18T13:10:31.769Z,41.80
2018-08-18T13:12:59.722Z,41.80
2018-08-18T13:17:54.085Z,41.80
2018-08-18T13:22:50.862Z,43.60
2018-08-18T13:25:18.396Z,44.30
2018-08-18T13:27:52.031Z,44.70
2018-08-18T13:30:19.861Z,44.70
2018-08-18T13:32:47.669Z,44.60
2018-08-18T13:37:42.973Z,45.10
2018-08-18T13:40:11.498Z,45.50
2018-08-18T13:45:06.165Z,45.40
2018-08-18T13:47:33.304Z,45.50
2018-08-18T13:50:06.993Z,45.60
2018-08-18T13:52:40.109Z,45.60
2018-08-18T13:55:07.281Z,45.60
2018-08-18T13:57:34.680Z,45.60
2018-08-18T14:00:01.857Z,45.70
2018-08-18T14:02:29.093Z,46.00
2018-08-18T14:04:56.496Z,46.10
2018-08-18T14:07:23.989Z,45.90
2018-08-18T14:09:56.512Z,45.90
2018-08-18T14:14:51.536Z,44.40
2018-08-18T14:17:20.491Z,44.10
2018-08-18T14:19:48.205Z,44.20
2018-08-18T14:22:17.264Z,43.50
2018-08-18T14:24:44.393Z,41.80
2018-08-18T14:27:14.285Z,40.50
2018-08-18T14:32:13.188Z,41.40
2018-08-18T14:34:40.319Z,41.80
2018-08-18T14:37:08.198Z,42.50
2018-08-18T14:49:25.383Z,45.40
2018-08-18T14:51:52.500Z,45.20
2018-08-18T14:54:24.240Z,45.10
2018-08-18T14:59:21.668Z,43.60
2018-08-18T15:04:16.080Z,43.40
2018-08-18T15:09:20.868Z,42.70
2018-08-18T15:28:58.557Z,33.00
2018-08-18T15:31:25.707Z,32.60
2018-08-18T15:36:29.837Z,31.70
2018-08-18T15:41:24.476Z,31.20
2018-08-18T15:43:52.044Z,31.40
2018-08-18T15:51:14.549Z,35.00
2018-08-18T15:56:10.580Z,36.10
2018-08-18T16:03:32.158Z,36.40
2018-08-18T16:15:47.982Z,33.90
2018-08-18T16:28:10.245Z,31.20
2018-08-18T16:50:28.249Z,29.60
2018-08-18T16:55:22.633Z,29.30
2018-08-18T16:57:49.805Z,29.10
2018-08-18T17:07:40.529Z,28.70
2018-08-18T17:10:07.725Z,28.60
2018-08-18T17:15:02.088Z,28.40
2018-08-18T17:32:13.929Z,27.60
2018-08-18T17:37:08.292Z,27.40
2018-08-18T17:39:35.640Z,27.30
2018-08-18T17:49:25.706Z,26.90
2018-08-18T17:59:18.053Z,26.40
2018-08-18T18:04:22.292Z,26.10
2018-08-18T18:06:50.648Z,26.00
2018-08-18T18:09:17.845Z,25.80
2018-08-18T18:26:30.153Z,24.90
2018-08-18T18:31:24.491Z,24.70
2018-08-18T18:33:56.497Z,24.50
2018-08-18T18:36:23.680Z,24.40
2018-08-18T18:41:19.973Z,24.20
2018-08-18T18:46:20.005Z,23.90
2018-08-18T18:51:14.400Z,23.70
2018-08-18T18:56:12.648Z,23.50
2018-08-18T19:08:28.909Z,23.20
2018-08-18T19:10:56.068Z,23.20
2018-08-18T19:15:52.814Z,23.10
2018-08-18T19:18:20.009Z,23.00
2018-08-18T19:38:07.164Z,22.50
2018-08-18T19:48:01.083Z,22.30
2018-08-18T20:00:23.890Z,22.00
2018-08-18T20:05:29.815Z,21.80
2018-08-18T20:10:24.256Z,21.70
2018-08-18T20:17:45.786Z,21.50
2018-08-18T20:20:17.311Z,21.40
2018-08-18T20:22:44.473Z,21.40
2018-08-18T20:25:11.625Z,21.30
2018-08-18T20:39:56.348Z,21.00
2018-08-18T20:42:29.205Z,21.00
2018-08-18T20:44:58.120Z,21.00
2018-08-18T20:54:48.380Z,20.60
2018-08-18T21:02:10.129Z,20.40
2018-08-18T21:11:59.526Z,20.20
2018-08-18T21:14:28.228Z,20.10
2018-08-18T21:21:52.983Z,20.10
2018-08-18T21:24:20.249Z,20.10
2018-08-18T21:29:15.424Z,20.10
2018-08-18T21:31:43.777Z,20.10
2018-08-18T21:36:38.120Z,20.10
2018-08-18T21:44:03.662Z,20.10
2018-08-18T21:49:00.062Z,20.10
2018-08-18T21:51:27.221Z,20.10
2018-08-18T21:53:54.388Z,20.10
2018-08-18T22:01:20.244Z,20.30
2018-08-18T22:03:48.428Z,20.30
2018-08-18T22:06:15.669Z,20.30
2018-08-18T22:16:13.383Z,20.20
2018-08-18T22:18:47.117Z,20.10
2018-08-18T22:21:16.684Z,20.10
2018-08-18T22:23:43.844Z,20.10
2018-08-18T22:28:44.597Z,20.00
2018-08-18T22:31:12.105Z,20.00
2018-08-18T22:36:07.624Z,19.80
2018-08-18T22:41:00.578Z,19.70
2018-08-18T22:43:33.224Z,19.80
2018-08-18T22:46:00.404Z,19.70
2018-08-18T22:50:54.784Z,19.70
2018-08-18T22:58:16.384Z,19.50
2018-08-18T23:00:46.181Z,19.50
2018-08-18T23:03:13.405Z,19.40
2018-08-18T23:05:40.600Z,19.40
2018-08-18T23:13:02.326Z,19.30
2018-08-18T23:15:29.699Z,19.30
2018-08-18T23:20:24.187Z,19.30
2018-08-18T23:32:53.859Z,19.30
2018-08-18T23:37:50.210Z,19.20
2018-08-18T23:45:12.429Z,19.20
2018-08-18T23:47:39.593Z,19.20
2018-08-18T23:52:48.905Z,19.20
2018-08-18T23:55:16.067Z,19.20
2018-08-18T23:57:43.226Z,19.30
